Airfield :
LOGIN :

Register | Disclaimer

   EN    FR    IT 

 










Legend :    VFR   Marginal VFR   IFR   Intensive IFR   Very Intensive IFR
Visi :
Ceiling :
>= 8 km
>= 3000ft
5 to 8 km
1000 to 3000 ft
1500m to 5 km
500 to 1000 ft
800 to 1500m
200 to 500 ft
< 800m
< 200 ft
Symbols :   Thunderstorms  Fog  Heavy snow  Heavy precipitations  Wind > 20 kt
SIGMETs :     Misc.  Thunderstorms  Icing  Turbulence  Mountain Waves  Volcanic Ashes






- Airport Elevation : 158 ft
- IATA code : QAR


EHDL - Deelen Airbase

CURRENT METAR :
  • 032055Z AUTO 32004KT 9999 BKN110 15/12 Q1014 BLU

EXPIRED METARs :
  • 032025Z AUTO 01003KT 340V040 9999 OVC100 16/12 Q1014 BLU
  • 031955Z AUTO 33004KT 310V020 9999 OVC097 16/12 Q1014 BLU
  • 031925Z AUTO 34002KT 9999 BKN091 OVC096 16/12 Q1014 BLU
  • 031855Z AUTO 03003KT 350V060 9999 OVC087 17/12 Q1013 BLU
  • 031825Z AUTO 36005KT 300V030 9999 OVC084 17/12 Q1013 BLU

Expired Forecast.



MET'MAP, your aeronautical weather chart ! - Copyright ORBIFLY December 2007 - Disclaimer

ORBIFLY MET'MAP TEAM :

Programming & Development : Alexandra Zaïnal
Concept & original design : Baudouin d'Aumeries
Assistance for programming : Marc-Olivier Méhu
Technical & hardware support : Manuel Goepfert

Contact : metmap@orbifly.com




SOURCES & CREDITS :

   NOAA